Hauptseite
METAR-TAF:

METAR-TAF

Flughäfen :

Flughafen Dakar-Léopold Sédar Senghor

Dakar, Senegal

Breite: 14-44N, Länge: 017-30W, Höhe: 27 m

Beobachtung

Neuester Wetterbericht von vor 1 Stunde und 47 Minuten, um 13:00 UTC
Wind 12 kt aus Nord
Temperatur 30°C
Luftfeuchtigkeit 79%
Luftdruck 1014 hPa
Sichtweite 10 km oder mehr
Aufgelockert bewölkt in der Höhe von 1600 ft

METAR: GOOY 171300Z 36012KT 9999 SCT016 30/26 Q1014

Zeit: 14:47 (14:47 UTC)

Prognose

Neuester Wetterbericht von vor 3 Stunden und 17 Minuten, um 11:30 UTC
Gültige Prognose vom 17 um 12 UTC bis 18 um 18 UTC
Wind 10 kt aus Nord
Sichtweite 10 km oder mehr
Aufgelockert bewölkt in der Höhe von 1300 ft

TAF: GOOY 171130Z 1712/1818 36010KT 9999 SCT013

Wetterbeobachtungen und Prognosen von mehr als 4000 Flughäfen (METAR und TAF Bericht).

Die verfügbaren Stationen werden durch gelbe und rote Markierungen auf der Karte dargestellt.

Führen Sie die Maus auf sie, um den Namen der Station zu sehen.

Darauf klicken, um die Beobachtung von Wetterbeobachtungen und Prognosen zu sehen.

Um die Karte zu ändern : klicken Sie auf den grünen Tasten mit einem schwarzen Kreuz Zum Vergrößern, auf den grünen Button mit einem Gedankenstrich zu verkleinern, oder auf die grünen Pfeile für benachbarte Karten.


METAR-TAF: